sensor_id;sensor_type;location;lat;lon;timestamp;temperature;humidity
43671;DHT22;29267;50.906;7.248;2024-01-07T00:01:15;2.80;99.90
43671;DHT22;29267;50.906;7.248;2024-01-07T00:03:41;2.70;99.90
43671;DHT22;29267;50.906;7.248;2024-01-07T00:06:08;2.80;99.90
43671;DHT22;29267;50.906;7.248;2024-01-07T00:08:34;2.70;99.90
43671;DHT22;29267;50.906;7.248;2024-01-07T00:11:00;2.70;99.90
43671;DHT22;29267;50.906;7.248;2024-01-07T00:13:25;2.70;99.90
43671;DHT22;29267;50.906;7.248;2024-01-07T00:15:51;2.70;99.90
43671;DHT22;29267;50.906;7.248;2024-01-07T00:18:19;2.70;99.90
43671;DHT22;29267;50.906;7.248;2024-01-07T00:20:45;2.80;99.90
43671;DHT22;29267;50.906;7.248;2024-01-07T00:23:10;2.70;99.90
43671;DHT22;29267;50.906;7.248;2024-01-07T00:25:36;2.70;99.90
43671;DHT22;29267;50.906;7.248;2024-01-07T00:28:01;2.70;99.90
43671;DHT22;29267;50.906;7.248;2024-01-07T00:30:27;2.70;99.90
43671;DHT22;29267;50.906;7.248;2024-01-07T00:32:52;2.70;99.90
43671;DHT22;29267;50.906;7.248;2024-01-07T00:35:18;2.70;99.90
43671;DHT22;29267;50.906;7.248;2024-01-07T00:37:44;2.70;99.90
43671;DHT22;29267;50.906;7.248;2024-01-07T00:40:10;2.70;99.90
43671;DHT22;29267;50.906;7.248;2024-01-07T00:42:36;2.70;99.90
43671;DHT22;29267;50.906;7.248;2024-01-07T00:45:02;2.70;99.90
43671;DHT22;29267;50.906;7.248;2024-01-07T00:47:28;2.70;99.90
43671;DHT22;29267;50.906;7.248;2024-01-07T00:49:54;2.70;99.90
43671;DHT22;29267;50.906;7.248;2024-01-07T00:52:19;2.70;99.90
43671;DHT22;29267;50.906;7.248;2024-01-07T00:54:46;2.70;99.90
43671;DHT22;29267;50.906;7.248;2024-01-07T00:57:12;2.70;99.90
43671;DHT22;29267;50.906;7.248;2024-01-07T00:59:40;2.80;99.90
43671;DHT22;29267;50.906;7.248;2024-01-07T01:02:06;2.70;99.90
43671;DHT22;29267;50.906;7.248;2024-01-07T01:04:31;2.70;99.90
43671;DHT22;29267;50.906;7.248;2024-01-07T01:06:57;2.70;99.90
43671;DHT22;29267;50.906;7.248;2024-01-07T01:09:22;2.70;99.90
43671;DHT22;29267;50.906;7.248;2024-01-07T01:11:48;2.80;99.90
43671;DHT22;29267;50.906;7.248;2024-01-07T01:14:15;2.70;99.90
43671;DHT22;29267;50.906;7.248;2024-01-07T01:16:41;2.80;99.90
43671;DHT22;29267;50.906;7.248;2024-01-07T01:19:06;2.80;99.90
43671;DHT22;29267;50.906;7.248;2024-01-07T01:21:32;2.80;99.90
43671;DHT22;29267;50.906;7.248;2024-01-07T01:23:57;2.80;99.90
43671;DHT22;29267;50.906;7.248;2024-01-07T01:26:24;2.70;99.90
43671;DHT22;29267;50.906;7.248;2024-01-07T01:28:49;2.70;99.90
43671;DHT22;29267;50.906;7.248;2024-01-07T01:31:15;2.80;99.90
43671;DHT22;29267;50.906;7.248;2024-01-07T01:33:41;2.70;99.90
43671;DHT22;29267;50.906;7.248;2024-01-07T01:36:07;2.70;99.90
43671;DHT22;29267;50.906;7.248;2024-01-07T01:38:33;2.70;99.90
43671;DHT22;29267;50.906;7.248;2024-01-07T01:40:58;2.80;99.90
43671;DHT22;29267;50.906;7.248;2024-01-07T01:43:28;2.80;99.90
43671;DHT22;29267;50.906;7.248;2024-01-07T01:45:55;2.70;99.90
43671;DHT22;29267;50.906;7.248;2024-01-07T01:48:25;2.70;99.90
43671;DHT22;29267;50.906;7.248;2024-01-07T01:50:53;2.80;99.90
43671;DHT22;29267;50.906;7.248;2024-01-07T01:53:19;2.80;99.90
43671;DHT22;29267;50.906;7.248;2024-01-07T01:55:45;2.70;99.90
43671;DHT22;29267;50.906;7.248;2024-01-07T01:58:13;2.70;99.90
43671;DHT22;29267;50.906;7.248;2024-01-07T02:00:39;2.70;99.90
43671;DHT22;29267;50.906;7.248;2024-01-07T02:03:05;2.70;99.90
43671;DHT22;29267;50.906;7.248;2024-01-07T02:05:30;2.80;99.90
43671;DHT22;29267;50.906;7.248;2024-01-07T02:07:56;2.70;99.90
43671;DHT22;29267;50.906;7.248;2024-01-07T02:10:22;2.70;99.90
43671;DHT22;29267;50.906;7.248;2024-01-07T02:12:48;2.80;99.90
43671;DHT22;29267;50.906;7.248;2024-01-07T02:15:14;2.80;99.90
43671;DHT22;29267;50.906;7.248;2024-01-07T02:17:40;2.80;99.90
43671;DHT22;29267;50.906;7.248;2024-01-07T02:20:06;2.80;99.90
43671;DHT22;29267;50.906;7.248;2024-01-07T02:22:32;2.80;99.90
43671;DHT22;29267;50.906;7.248;2024-01-07T02:24:58;2.80;99.90
43671;DHT22;29267;50.906;7.248;2024-01-07T02:27:23;2.80;99.90
43671;DHT22;29267;50.906;7.248;2024-01-07T02:29:49;2.80;99.90
43671;DHT22;29267;50.906;7.248;2024-01-07T02:32:14;2.70;99.90
43671;DHT22;29267;50.906;7.248;2024-01-07T02:34:40;2.70;99.90
43671;DHT22;29267;50.906;7.248;2024-01-07T02:37:06;2.70;99.90
43671;DHT22;29267;50.906;7.248;2024-01-07T02:39:31;2.70;99.90
43671;DHT22;29267;50.906;7.248;2024-01-07T02:41:57;2.70;99.90
43671;DHT22;29267;50.906;7.248;2024-01-07T02:44:22;2.70;99.90
43671;DHT22;29267;50.906;7.248;2024-01-07T02:46:48;2.70;99.90
43671;DHT22;29267;50.906;7.248;2024-01-07T02:49:14;2.70;99.90
43671;DHT22;29267;50.906;7.248;2024-01-07T02:51:39;2.70;99.90
43671;DHT22;29267;50.906;7.248;2024-01-07T02:54:05;2.70;99.90
43671;DHT22;29267;50.906;7.248;2024-01-07T02:56:31;2.70;99.90
43671;DHT22;29267;50.906;7.248;2024-01-07T02:58:56;2.70;99.90
43671;DHT22;29267;50.906;7.248;2024-01-07T03:01:22;2.70;99.90
43671;DHT22;29267;50.906;7.248;2024-01-07T03:03:50;2.70;99.90
43671;DHT22;29267;50.906;7.248;2024-01-07T03:06:16;2.70;99.90
43671;DHT22;29267;50.906;7.248;2024-01-07T03:08:42;2.70;99.90
43671;DHT22;29267;50.906;7.248;2024-01-07T03:11:08;2.70;99.90
43671;DHT22;29267;50.906;7.248;2024-01-07T03:13:34;2.70;99.90
43671;DHT22;29267;50.906;7.248;2024-01-07T03:15:59;2.70;99.90
43671;DHT22;29267;50.906;7.248;2024-01-07T03:18:27;2.70;99.90
43671;DHT22;29267;50.906;7.248;2024-01-07T03:20:52;2.70;99.90
43671;DHT22;29267;50.906;7.248;2024-01-07T03:23:18;2.70;99.90
43671;DHT22;29267;50.906;7.248;2024-01-07T03:25:44;2.70;99.90
43671;DHT22;29267;50.906;7.248;2024-01-07T03:28:09;2.70;99.90
43671;DHT22;29267;50.906;7.248;2024-01-07T03:30:35;2.70;99.90
43671;DHT22;29267;50.906;7.248;2024-01-07T03:33:00;2.70;99.90
43671;DHT22;29267;50.906;7.248;2024-01-07T03:35:27;2.70;99.90
43671;DHT22;29267;50.906;7.248;2024-01-07T03:37:52;2.70;99.90
43671;DHT22;29267;50.906;7.248;2024-01-07T03:40:18;2.70;99.90
43671;DHT22;29267;50.906;7.248;2024-01-07T03:42:43;2.70;99.90
43671;DHT22;29267;50.906;7.248;2024-01-07T03:45:09;2.60;99.90
43671;DHT22;29267;50.906;7.248;2024-01-07T03:47:35;2.60;99.90
43671;DHT22;29267;50.906;7.248;2024-01-07T03:50:00;2.60;99.90
43671;DHT22;29267;50.906;7.248;2024-01-07T03:52:26;2.50;99.90
43671;DHT22;29267;50.906;7.248;2024-01-07T03:54:51;2.60;99.90
43671;DHT22;29267;50.906;7.248;2024-01-07T03:57:17;2.60;99.90
43671;DHT22;29267;50.906;7.248;2024-01-07T03:59:42;2.60;99.90
43671;DHT22;29267;50.906;7.248;2024-01-07T04:02:08;2.50;99.90
43671;DHT22;29267;50.906;7.248;2024-01-07T04:04:34;2.50;99.90
43671;DHT22;29267;50.906;7.248;2024-01-07T04:06:59;2.50;99.90
43671;DHT22;29267;50.906;7.248;2024-01-07T04:09:25;2.50;99.90
43671;DHT22;29267;50.906;7.248;2024-01-07T04:11:50;2.50;99.90
43671;DHT22;29267;50.906;7.248;2024-01-07T04:14:16;2.50;99.90
43671;DHT22;29267;50.906;7.248;2024-01-07T04:16:42;2.40;99.90
43671;DHT22;29267;50.906;7.248;2024-01-07T04:19:07;2.40;99.90
43671;DHT22;29267;50.906;7.248;2024-01-07T04:21:33;2.30;99.90
43671;DHT22;29267;50.906;7.248;2024-01-07T04:23:59;2.30;99.90
43671;DHT22;29267;50.906;7.248;2024-01-07T04:26:24;2.30;99.90
43671;DHT22;29267;50.906;7.248;2024-01-07T04:28:50;2.30;99.90
43671;DHT22;29267;50.906;7.248;2024-01-07T04:31:15;2.30;99.90
43671;DHT22;29267;50.906;7.248;2024-01-07T04:33:41;2.30;99.90
43671;DHT22;29267;50.906;7.248;2024-01-07T04:36:07;2.30;99.90
43671;DHT22;29267;50.906;7.248;2024-01-07T04:38:32;2.30;99.90
43671;DHT22;29267;50.906;7.248;2024-01-07T04:40:58;2.30;99.90
43671;DHT22;29267;50.906;7.248;2024-01-07T04:43:23;2.30;99.90
43671;DHT22;29267;50.906;7.248;2024-01-07T04:45:49;2.30;99.90
43671;DHT22;29267;50.906;7.248;2024-01-07T04:48:15;2.20;99.90
43671;DHT22;29267;50.906;7.248;2024-01-07T04:50:40;2.20;99.90
43671;DHT22;29267;50.906;7.248;2024-01-07T04:53:08;2.20;99.90
43671;DHT22;29267;50.906;7.248;2024-01-07T04:55:33;2.20;99.90
43671;DHT22;29267;50.906;7.248;2024-01-07T04:57:59;2.10;99.90
43671;DHT22;29267;50.906;7.248;2024-01-07T05:00:25;2.20;99.90
43671;DHT22;29267;50.906;7.248;2024-01-07T05:02:51;2.20;99.90
43671;DHT22;29267;50.906;7.248;2024-01-07T05:05:16;2.10;99.90
43671;DHT22;29267;50.906;7.248;2024-01-07T05:07:42;2.20;99.90
43671;DHT22;29267;50.906;7.248;2024-01-07T05:10:07;2.10;99.90
43671;DHT22;29267;50.906;7.248;2024-01-07T05:12:33;2.00;99.90
43671;DHT22;29267;50.906;7.248;2024-01-07T05:14:59;2.10;99.90
43671;DHT22;29267;50.906;7.248;2024-01-07T05:17:25;2.00;99.90
43671;DHT22;29267;50.906;7.248;2024-01-07T05:19:50;2.00;99.90
43671;DHT22;29267;50.906;7.248;2024-01-07T05:22:16;2.10;99.90
43671;DHT22;29267;50.906;7.248;2024-01-07T05:24:42;2.10;99.90
43671;DHT22;29267;50.906;7.248;2024-01-07T05:27:08;2.10;99.90
43671;DHT22;29267;50.906;7.248;2024-01-07T05:29:34;2.10;99.90
43671;DHT22;29267;50.906;7.248;2024-01-07T05:32:00;2.10;99.90
43671;DHT22;29267;50.906;7.248;2024-01-07T05:34:29;2.10;99.90
43671;DHT22;29267;50.906;7.248;2024-01-07T05:36:54;2.10;99.90
43671;DHT22;29267;50.906;7.248;2024-01-07T05:39:20;2.10;99.90
43671;DHT22;29267;50.906;7.248;2024-01-07T05:41:46;2.10;99.90
43671;DHT22;29267;50.906;7.248;2024-01-07T05:44:11;2.10;99.90
43671;DHT22;29267;50.906;7.248;2024-01-07T05:46:41;2.00;99.90
43671;DHT22;29267;50.906;7.248;2024-01-07T05:49:07;2.00;99.90
43671;DHT22;29267;50.906;7.248;2024-01-07T05:51:33;2.10;99.90
43671;DHT22;29267;50.906;7.248;2024-01-07T05:53:58;2.10;99.90
43671;DHT22;29267;50.906;7.248;2024-01-07T05:56:24;2.10;99.90
43671;DHT22;29267;50.906;7.248;2024-01-07T05:58:49;2.10;99.90
43671;DHT22;29267;50.906;7.248;2024-01-07T06:01:19;2.00;99.90
43671;DHT22;29267;50.906;7.248;2024-01-07T06:03:46;2.00;99.90
43671;DHT22;29267;50.906;7.248;2024-01-07T06:06:13;2.10;99.90
43671;DHT22;29267;50.906;7.248;2024-01-07T06:08:43;2.10;99.90
43671;DHT22;29267;50.906;7.248;2024-01-07T06:11:09;2.00;99.90
43671;DHT22;29267;50.906;7.248;2024-01-07T06:13:36;2.00;99.90
43671;DHT22;29267;50.906;7.248;2024-01-07T06:16:01;2.10;99.90
43671;DHT22;29267;50.906;7.248;2024-01-07T06:18:27;2.00;99.90
43671;DHT22;29267;50.906;7.248;2024-01-07T06:20:53;2.00;99.90
43671;DHT22;29267;50.906;7.248;2024-01-07T06:23:19;2.00;99.90
43671;DHT22;29267;50.906;7.248;2024-01-07T06:25:44;2.00;99.90
43671;DHT22;29267;50.906;7.248;2024-01-07T06:28:10;2.00;99.90
43671;DHT22;29267;50.906;7.248;2024-01-07T06:30:36;2.00;99.90
43671;DHT22;29267;50.906;7.248;2024-01-07T06:33:01;2.00;99.90
43671;DHT22;29267;50.906;7.248;2024-01-07T06:35:27;2.00;99.90
43671;DHT22;29267;50.906;7.248;2024-01-07T06:37:53;2.00;99.90
43671;DHT22;29267;50.906;7.248;2024-01-07T06:40:19;2.00;99.90
43671;DHT22;29267;50.906;7.248;2024-01-07T06:42:45;1.90;99.90
43671;DHT22;29267;50.906;7.248;2024-01-07T06:45:11;1.90;99.90
43671;DHT22;29267;50.906;7.248;2024-01-07T06:47:36;1.90;99.90
43671;DHT22;29267;50.906;7.248;2024-01-07T06:50:02;1.90;99.90
43671;DHT22;29267;50.906;7.248;2024-01-07T06:52:27;1.80;99.90
43671;DHT22;29267;50.906;7.248;2024-01-07T06:54:53;1.90;99.90
43671;DHT22;29267;50.906;7.248;2024-01-07T06:57:19;1.90;99.90
43671;DHT22;29267;50.906;7.248;2024-01-07T06:59:44;1.90;99.90
43671;DHT22;29267;50.906;7.248;2024-01-07T07:02:10;1.80;99.90
43671;DHT22;29267;50.906;7.248;2024-01-07T07:04:35;1.80;99.90
43671;DHT22;29267;50.906;7.248;2024-01-07T07:07:02;1.80;99.90
43671;DHT22;29267;50.906;7.248;2024-01-07T07:09:27;1.80;99.90
43671;DHT22;29267;50.906;7.248;2024-01-07T07:11:53;1.80;99.90
43671;DHT22;29267;50.906;7.248;2024-01-07T07:14:19;1.90;99.90
43671;DHT22;29267;50.906;7.248;2024-01-07T07:16:44;1.80;99.90
43671;DHT22;29267;50.906;7.248;2024-01-07T07:19:10;1.80;99.90
43671;DHT22;29267;50.906;7.248;2024-01-07T07:21:40;1.80;99.90
43671;DHT22;29267;50.906;7.248;2024-01-07T07:24:05;1.80;99.90
43671;DHT22;29267;50.906;7.248;2024-01-07T07:26:31;1.80;99.90
43671;DHT22;29267;50.906;7.248;2024-01-07T07:28:57;1.70;99.90
43671;DHT22;29267;50.906;7.248;2024-01-07T07:31:23;1.70;99.90
43671;DHT22;29267;50.906;7.248;2024-01-07T07:33:48;1.80;99.90
43671;DHT22;29267;50.906;7.248;2024-01-07T07:36:14;1.80;99.90
43671;DHT22;29267;50.906;7.248;2024-01-07T07:38:40;1.90;99.90
43671;DHT22;29267;50.906;7.248;2024-01-07T07:41:06;1.80;99.90
43671;DHT22;29267;50.906;7.248;2024-01-07T07:43:33;1.90;99.90
43671;DHT22;29267;50.906;7.248;2024-01-07T07:45:58;1.90;99.90
43671;DHT22;29267;50.906;7.248;2024-01-07T07:48:25;1.90;99.90
43671;DHT22;29267;50.906;7.248;2024-01-07T07:50:51;1.90;99.90
43671;DHT22;29267;50.906;7.248;2024-01-07T07:53:17;2.00;99.90
43671;DHT22;29267;50.906;7.248;2024-01-07T07:55:43;2.00;99.90
43671;DHT22;29267;50.906;7.248;2024-01-07T07:58:09;2.00;99.90
43671;DHT22;29267;50.906;7.248;2024-01-07T08:00:35;2.00;99.90
43671;DHT22;29267;50.906;7.248;2024-01-07T08:03:00;1.90;99.90
43671;DHT22;29267;50.906;7.248;2024-01-07T08:05:26;1.90;99.90
43671;DHT22;29267;50.906;7.248;2024-01-07T08:07:52;2.00;99.90
43671;DHT22;29267;50.906;7.248;2024-01-07T08:10:17;2.00;99.90
43671;DHT22;29267;50.906;7.248;2024-01-07T08:12:43;2.00;99.90
43671;DHT22;29267;50.906;7.248;2024-01-07T08:15:09;2.00;99.90
43671;DHT22;29267;50.906;7.248;2024-01-07T08:17:34;2.00;99.90
43671;DHT22;29267;50.906;7.248;2024-01-07T08:20:00;2.10;99.90
43671;DHT22;29267;50.906;7.248;2024-01-07T08:22:26;2.10;99.90
43671;DHT22;29267;50.906;7.248;2024-01-07T08:24:52;2.10;99.90
43671;DHT22;29267;50.906;7.248;2024-01-07T08:27:19;2.10;99.90
43671;DHT22;29267;50.906;7.248;2024-01-07T08:29:44;2.10;99.90
43671;DHT22;29267;50.906;7.248;2024-01-07T08:32:10;2.10;99.90
43671;DHT22;29267;50.906;7.248;2024-01-07T08:34:38;2.10;99.90
43671;DHT22;29267;50.906;7.248;2024-01-07T08:37:04;2.10;99.90
43671;DHT22;29267;50.906;7.248;2024-01-07T08:39:29;2.10;99.90
43671;DHT22;29267;50.906;7.248;2024-01-07T08:41:55;2.00;99.90
43671;DHT22;29267;50.906;7.248;2024-01-07T08:44:20;2.00;99.90
43671;DHT22;29267;50.906;7.248;2024-01-07T08:46:46;2.10;99.90
43671;DHT22;29267;50.906;7.248;2024-01-07T08:49:12;2.10;99.90
43671;DHT22;29267;50.906;7.248;2024-01-07T08:51:39;2.10;99.90
43671;DHT22;29267;50.906;7.248;2024-01-07T08:54:04;2.10;99.90
43671;DHT22;29267;50.906;7.248;2024-01-07T08:56:30;2.00;99.90
43671;DHT22;29267;50.906;7.248;2024-01-07T08:58:56;2.00;99.90
43671;DHT22;29267;50.906;7.248;2024-01-07T09:01:21;2.00;99.90
43671;DHT22;29267;50.906;7.248;2024-01-07T09:03:47;2.00;99.90
43671;DHT22;29267;50.906;7.248;2024-01-07T09:06:12;2.00;99.90
43671;DHT22;29267;50.906;7.248;2024-01-07T09:08:38;2.10;99.90
43671;DHT22;29267;50.906;7.248;2024-01-07T09:11:04;2.10;99.90
43671;DHT22;29267;50.906;7.248;2024-01-07T09:13:31;2.10;99.90
43671;DHT22;29267;50.906;7.248;2024-01-07T09:15:57;2.00;99.90
43671;DHT22;29267;50.906;7.248;2024-01-07T09:18:23;2.00;99.90
43671;DHT22;29267;50.906;7.248;2024-01-07T09:20:48;1.90;99.90
43671;DHT22;29267;50.906;7.248;2024-01-07T09:23:14;1.90;99.90
43671;DHT22;29267;50.906;7.248;2024-01-07T09:25:41;2.00;99.90
43671;DHT22;29267;50.906;7.248;2024-01-07T09:28:07;1.90;99.90
43671;DHT22;29267;50.906;7.248;2024-01-07T09:30:32;1.90;99.90
43671;DHT22;29267;50.906;7.248;2024-01-07T09:32:58;1.90;99.90
43671;DHT22;29267;50.906;7.248;2024-01-07T09:35:23;1.90;99.90
43671;DHT22;29267;50.906;7.248;2024-01-07T09:37:49;2.00;99.90
43671;DHT22;29267;50.906;7.248;2024-01-07T09:40:18;2.00;99.90
43671;DHT22;29267;50.906;7.248;2024-01-07T09:42:45;2.00;99.90
43671;DHT22;29267;50.906;7.248;2024-01-07T09:45:13;2.00;99.90
43671;DHT22;29267;50.906;7.248;2024-01-07T09:47:40;2.00;99.90
43671;DHT22;29267;50.906;7.248;2024-01-07T09:50:06;2.10;99.90
43671;DHT22;29267;50.906;7.248;2024-01-07T09:52:35;2.10;99.90
43671;DHT22;29267;50.906;7.248;2024-01-07T09:55:02;2.10;99.90
43671;DHT22;29267;50.906;7.248;2024-01-07T09:57:29;2.10;99.90
43671;DHT22;29267;50.906;7.248;2024-01-07T09:59:55;2.10;99.90
43671;DHT22;29267;50.906;7.248;2024-01-07T10:02:21;2.10;99.90
43671;DHT22;29267;50.906;7.248;2024-01-07T10:04:49;2.10;99.90
43671;DHT22;29267;50.906;7.248;2024-01-07T10:07:15;2.10;99.90
43671;DHT22;29267;50.906;7.248;2024-01-07T10:09:41;2.20;99.90
43671;DHT22;29267;50.906;7.248;2024-01-07T10:12:09;2.10;99.90
43671;DHT22;29267;50.906;7.248;2024-01-07T10:14:35;2.10;99.90
43671;DHT22;29267;50.906;7.248;2024-01-07T10:17:01;2.00;99.90
43671;DHT22;29267;50.906;7.248;2024-01-07T10:19:26;1.90;99.90
43671;DHT22;29267;50.906;7.248;2024-01-07T10:22:02;1.80;99.90
43671;DHT22;29267;50.906;7.248;2024-01-07T10:24:36;1.80;99.90
43671;DHT22;29267;50.906;7.248;2024-01-07T10:27:03;1.80;99.90
43671;DHT22;29267;50.906;7.248;2024-01-07T10:29:29;1.80;99.90
43671;DHT22;29267;50.906;7.248;2024-01-07T10:31:58;1.90;99.90
43671;DHT22;29267;50.906;7.248;2024-01-07T10:34:24;1.80;99.90
43671;DHT22;29267;50.906;7.248;2024-01-07T10:36:53;1.90;99.90
43671;DHT22;29267;50.906;7.248;2024-01-07T10:39:19;1.80;99.90
43671;DHT22;29267;50.906;7.248;2024-01-07T10:41:46;1.90;99.90
43671;DHT22;29267;50.906;7.248;2024-01-07T10:44:13;1.80;99.90
43671;DHT22;29267;50.906;7.248;2024-01-07T10:46:39;1.90;99.90
43671;DHT22;29267;50.906;7.248;2024-01-07T10:49:16;1.90;99.90
43671;DHT22;29267;50.906;7.248;2024-01-07T10:51:45;1.90;99.90
43671;DHT22;29267;50.906;7.248;2024-01-07T10:54:12;2.00;99.90
43671;DHT22;29267;50.906;7.248;2024-01-07T10:56:45;1.90;99.90
43671;DHT22;29267;50.906;7.248;2024-01-07T10:59:10;2.00;99.90
43671;DHT22;29267;50.906;7.248;2024-01-07T11:01:36;2.00;99.90
43671;DHT22;29267;50.906;7.248;2024-01-07T11:04:13;2.10;99.90
43671;DHT22;29267;50.906;7.248;2024-01-07T11:06:52;2.20;99.90
43671;DHT22;29267;50.906;7.248;2024-01-07T11:09:36;2.10;99.90
43671;DHT22;29267;50.906;7.248;2024-01-07T11:12:03;2.10;99.90
43671;DHT22;29267;50.906;7.248;2024-01-07T11:14:41;2.10;99.90
43671;DHT22;29267;50.906;7.248;2024-01-07T11:17:10;2.10;99.90
43671;DHT22;29267;50.906;7.248;2024-01-07T11:19:36;2.10;99.90
43671;DHT22;29267;50.906;7.248;2024-01-07T11:22:24;2.20;99.90
43671;DHT22;29267;50.906;7.248;2024-01-07T11:24:57;2.30;99.90
43671;DHT22;29267;50.906;7.248;2024-01-07T11:27:24;2.30;99.90
43671;DHT22;29267;50.906;7.248;2024-01-07T11:29:53;2.40;99.90
43671;DHT22;29267;50.906;7.248;2024-01-07T11:32:26;2.50;99.90
43671;DHT22;29267;50.906;7.248;2024-01-07T11:34:54;2.50;99.90
43671;DHT22;29267;50.906;7.248;2024-01-07T11:37:22;2.30;99.90
43671;DHT22;29267;50.906;7.248;2024-01-07T11:39:50;2.30;99.90
43671;DHT22;29267;50.906;7.248;2024-01-07T11:42:17;2.20;99.90
43671;DHT22;29267;50.906;7.248;2024-01-07T11:44:47;2.20;99.90
43671;DHT22;29267;50.906;7.248;2024-01-07T11:47:17;2.10;99.90
43671;DHT22;29267;50.906;7.248;2024-01-07T11:49:43;2.10;99.90
43671;DHT22;29267;50.906;7.248;2024-01-07T11:52:09;2.10;99.90
43671;DHT22;29267;50.906;7.248;2024-01-07T11:54:38;2.10;99.90
43671;DHT22;29267;50.906;7.248;2024-01-07T11:57:05;2.20;99.90
43671;DHT22;29267;50.906;7.248;2024-01-07T11:59:32;2.10;99.90
43671;DHT22;29267;50.906;7.248;2024-01-07T12:01:59;2.00;99.90
43671;DHT22;29267;50.906;7.248;2024-01-07T12:04:25;1.90;99.90
43671;DHT22;29267;50.906;7.248;2024-01-07T12:06:51;1.90;99.90
43671;DHT22;29267;50.906;7.248;2024-01-07T12:09:17;1.90;99.90
43671;DHT22;29267;50.906;7.248;2024-01-07T12:11:43;1.90;99.90
43671;DHT22;29267;50.906;7.248;2024-01-07T12:14:09;1.90;99.90
43671;DHT22;29267;50.906;7.248;2024-01-07T12:16:36;1.90;99.90
43671;DHT22;29267;50.906;7.248;2024-01-07T12:19:02;1.90;99.90
43671;DHT22;29267;50.906;7.248;2024-01-07T12:21:27;1.80;99.90
43671;DHT22;29267;50.906;7.248;2024-01-07T12:23:55;1.80;99.90
43671;DHT22;29267;50.906;7.248;2024-01-07T12:26:26;1.70;99.90
43671;DHT22;29267;50.906;7.248;2024-01-07T12:28:57;1.70;99.90
43671;DHT22;29267;50.906;7.248;2024-01-07T12:31:26;1.70;99.90
43671;DHT22;29267;50.906;7.248;2024-01-07T12:33:52;1.70;99.90
43671;DHT22;29267;50.906;7.248;2024-01-07T12:36:21;1.70;99.90
43671;DHT22;29267;50.906;7.248;2024-01-07T12:38:47;1.70;99.90
43671;DHT22;29267;50.906;7.248;2024-01-07T12:41:13;1.70;99.90
43671;DHT22;29267;50.906;7.248;2024-01-07T12:43:39;1.70;99.90
43671;DHT22;29267;50.906;7.248;2024-01-07T12:46:05;1.70;99.90
43671;DHT22;29267;50.906;7.248;2024-01-07T12:48:31;1.70;99.90
43671;DHT22;29267;50.906;7.248;2024-01-07T12:50:57;1.70;99.90
43671;DHT22;29267;50.906;7.248;2024-01-07T12:53:23;1.70;99.90
43671;DHT22;29267;50.906;7.248;2024-01-07T12:55:49;1.60;99.90
43671;DHT22;29267;50.906;7.248;2024-01-07T12:58:14;1.60;99.90
43671;DHT22;29267;50.906;7.248;2024-01-07T13:00:42;1.50;99.90
43671;DHT22;29267;50.906;7.248;2024-01-07T13:03:08;1.50;99.90
43671;DHT22;29267;50.906;7.248;2024-01-07T13:05:39;1.40;99.90
43671;DHT22;29267;50.906;7.248;2024-01-07T13:08:05;1.40;99.90
43671;DHT22;29267;50.906;7.248;2024-01-07T13:10:30;1.30;99.90
43671;DHT22;29267;50.906;7.248;2024-01-07T13:12:56;1.30;99.90
43671;DHT22;29267;50.906;7.248;2024-01-07T13:15:21;1.30;99.90
43671;DHT22;29267;50.906;7.248;2024-01-07T13:17:48;1.20;99.90
43671;DHT22;29267;50.906;7.248;2024-01-07T13:20:13;1.20;99.90
43671;DHT22;29267;50.906;7.248;2024-01-07T13:22:40;1.20;99.90
43671;DHT22;29267;50.906;7.248;2024-01-07T13:25:06;1.20;99.90
43671;DHT22;29267;50.906;7.248;2024-01-07T13:27:32;1.10;99.90
43671;DHT22;29267;50.906;7.248;2024-01-07T13:29:58;1.10;99.90
43671;DHT22;29267;50.906;7.248;2024-01-07T13:32:24;1.00;99.90
43671;DHT22;29267;50.906;7.248;2024-01-07T13:34:49;1.00;99.90
43671;DHT22;29267;50.906;7.248;2024-01-07T13:37:15;1.00;99.90
43671;DHT22;29267;50.906;7.248;2024-01-07T13:39:40;1.00;99.90
43671;DHT22;29267;50.906;7.248;2024-01-07T13:42:06;1.00;99.90
43671;DHT22;29267;50.906;7.248;2024-01-07T13:44:31;1.00;99.90
43671;DHT22;29267;50.906;7.248;2024-01-07T13:47:00;0.90;99.90
43671;DHT22;29267;50.906;7.248;2024-01-07T13:49:26;0.90;99.90
43671;DHT22;29267;50.906;7.248;2024-01-07T13:51:53;0.90;99.90
43671;DHT22;29267;50.906;7.248;2024-01-07T13:54:19;0.90;99.90
43671;DHT22;29267;50.906;7.248;2024-01-07T13:56:45;0.90;99.90
43671;DHT22;29267;50.906;7.248;2024-01-07T13:59:11;0.90;99.90
43671;DHT22;29267;50.906;7.248;2024-01-07T14:01:37;0.90;99.90
43671;DHT22;29267;50.906;7.248;2024-01-07T14:04:05;0.90;99.90
43671;DHT22;29267;50.906;7.248;2024-01-07T14:06:31;1.00;99.90
43671;DHT22;29267;50.906;7.248;2024-01-07T14:08:57;0.90;99.90
43671;DHT22;29267;50.906;7.248;2024-01-07T14:11:23;0.90;99.90
43671;DHT22;29267;50.906;7.248;2024-01-07T14:13:49;0.80;99.90
43671;DHT22;29267;50.906;7.248;2024-01-07T14:16:14;0.70;99.90
43671;DHT22;29267;50.906;7.248;2024-01-07T14:18:40;0.60;99.90
43671;DHT22;29267;50.906;7.248;2024-01-07T14:21:06;0.60;99.90
43671;DHT22;29267;50.906;7.248;2024-01-07T14:23:33;0.50;99.90
43671;DHT22;29267;50.906;7.248;2024-01-07T14:25:59;0.50;99.90
43671;DHT22;29267;50.906;7.248;2024-01-07T14:28:25;0.60;99.90
43671;DHT22;29267;50.906;7.248;2024-01-07T14:30:50;0.60;99.90
43671;DHT22;29267;50.906;7.248;2024-01-07T14:33:16;0.60;99.90
43671;DHT22;29267;50.906;7.248;2024-01-07T14:35:41;0.60;99.90
43671;DHT22;29267;50.906;7.248;2024-01-07T14:38:07;0.60;99.90
43671;DHT22;29267;50.906;7.248;2024-01-07T14:40:33;0.60;99.90
43671;DHT22;29267;50.906;7.248;2024-01-07T14:42:58;0.60;99.90
43671;DHT22;29267;50.906;7.248;2024-01-07T14:45:24;0.60;99.90
43671;DHT22;29267;50.906;7.248;2024-01-07T14:47:53;0.60;99.90
43671;DHT22;29267;50.906;7.248;2024-01-07T14:50:19;0.50;99.90
43671;DHT22;29267;50.906;7.248;2024-01-07T14:52:45;0.30;99.90
43671;DHT22;29267;50.906;7.248;2024-01-07T14:55:11;0.30;99.90
43671;DHT22;29267;50.906;7.248;2024-01-07T14:57:38;0.30;99.90
43671;DHT22;29267;50.906;7.248;2024-01-07T15:00:04;0.20;99.90
43671;DHT22;29267;50.906;7.248;2024-01-07T15:02:30;0.10;99.90
43671;DHT22;29267;50.906;7.248;2024-01-07T15:04:56;0.10;99.90
43671;DHT22;29267;50.906;7.248;2024-01-07T15:07:22;0.10;99.90
43671;DHT22;29267;50.906;7.248;2024-01-07T15:09:48;0.00;99.90
43671;DHT22;29267;50.906;7.248;2024-01-07T15:12:14;0.00;99.90
43671;DHT22;29267;50.906;7.248;2024-01-07T15:14:39;0.00;99.90
43671;DHT22;29267;50.906;7.248;2024-01-07T15:17:05;0.00;99.90
43671;DHT22;29267;50.906;7.248;2024-01-07T15:19:31;-0.10;99.90
43671;DHT22;29267;50.906;7.248;2024-01-07T15:21:57;-0.10;99.90
43671;DHT22;29267;50.906;7.248;2024-01-07T15:24:22;-0.20;99.90
43671;DHT22;29267;50.906;7.248;2024-01-07T15:26:48;-0.10;99.90
43671;DHT22;29267;50.906;7.248;2024-01-07T15:29:14;-0.20;99.90
43671;DHT22;29267;50.906;7.248;2024-01-07T15:31:40;-0.20;99.90
43671;DHT22;29267;50.906;7.248;2024-01-07T15:34:05;-0.20;99.90
43671;DHT22;29267;50.906;7.248;2024-01-07T15:36:32;-0.30;99.90
43671;DHT22;29267;50.906;7.248;2024-01-07T15:38:59;-0.20;99.90